sensor_id;sensor_type;location;lat;lon;timestamp;P1;durP1;ratioP1;P2;durP2;ratioP2
22080;SDS011;11207;59.512;18.050;2023-05-07T00:01:53;4.97;;;4.57;;
22080;SDS011;11207;59.512;18.050;2023-05-07T00:04:18;4.93;;;4.53;;
22080;SDS011;11207;59.512;18.050;2023-05-07T00:06:44;5.27;;;4.70;;
22080;SDS011;11207;59.512;18.050;2023-05-07T00:09:10;5.13;;;4.73;;
22080;SDS011;11207;59.512;18.050;2023-05-07T00:11:35;5.93;;;5.30;;
22080;SDS011;11207;59.512;18.050;2023-05-07T00:14:01;4.83;;;4.43;;
22080;SDS011;11207;59.512;18.050;2023-05-07T00:16:27;5.87;;;5.33;;
22080;SDS011;11207;59.512;18.050;2023-05-07T00:18:52;5.97;;;5.00;;
22080;SDS011;11207;59.512;18.050;2023-05-07T00:21:18;5.17;;;4.40;;
22080;SDS011;11207;59.512;18.050;2023-05-07T00:23:44;5.17;;;4.67;;
22080;SDS011;11207;59.512;18.050;2023-05-07T00:26:09;5.40;;;4.63;;
22080;SDS011;11207;59.512;18.050;2023-05-07T00:28:35;7.23;;;5.17;;
22080;SDS011;11207;59.512;18.050;2023-05-07T00:31:01;5.27;;;4.87;;
22080;SDS011;11207;59.512;18.050;2023-05-07T00:33:26;6.40;;;5.57;;
22080;SDS011;11207;59.512;18.050;2023-05-07T00:35:52;9.77;;;5.83;;
22080;SDS011;11207;59.512;18.050;2023-05-07T00:38:19;5.47;;;4.77;;
22080;SDS011;11207;59.512;18.050;2023-05-07T00:40:45;8.83;;;5.40;;
22080;SDS011;11207;59.512;18.050;2023-05-07T00:43:10;6.77;;;4.60;;
22080;SDS011;11207;59.512;18.050;2023-05-07T00:45:37;6.13;;;4.90;;
22080;SDS011;11207;59.512;18.050;2023-05-07T00:48:03;6.27;;;4.80;;
22080;SDS011;11207;59.512;18.050;2023-05-07T00:50:29;5.67;;;4.87;;
22080;SDS011;11207;59.512;18.050;2023-05-07T00:52:55;6.57;;;5.40;;
22080;SDS011;11207;59.512;18.050;2023-05-07T00:55:22;6.20;;;5.00;;
22080;SDS011;11207;59.512;18.050;2023-05-07T00:57:49;5.23;;;4.73;;
22080;SDS011;11207;59.512;18.050;2023-05-07T01:00:16;5.53;;;5.03;;
22080;SDS011;11207;59.512;18.050;2023-05-07T01:02:43;6.50;;;4.90;;
22080;SDS011;11207;59.512;18.050;2023-05-07T01:05:10;6.00;;;5.33;;
22080;SDS011;11207;59.512;18.050;2023-05-07T01:07:39;6.40;;;5.57;;
22080;SDS011;11207;59.512;18.050;2023-05-07T01:10:06;5.10;;;4.60;;
22080;SDS011;11207;59.512;18.050;2023-05-07T01:12:32;5.60;;;5.00;;
22080;SDS011;11207;59.512;18.050;2023-05-07T01:14:59;5.43;;;4.90;;
22080;SDS011;11207;59.512;18.050;2023-05-07T01:17:25;6.13;;;5.53;;
22080;SDS011;11207;59.512;18.050;2023-05-07T01:19:50;6.57;;;5.83;;
22080;SDS011;11207;59.512;18.050;2023-05-07T01:22:22;5.20;;;4.70;;
22080;SDS011;11207;59.512;18.050;2023-05-07T01:24:57;6.17;;;5.33;;
22080;SDS011;11207;59.512;18.050;2023-05-07T01:27:24;8.63;;;5.43;;
22080;SDS011;11207;59.512;18.050;2023-05-07T01:29:50;5.67;;;5.03;;
22080;SDS011;11207;59.512;18.050;2023-05-07T01:32:16;5.50;;;5.00;;
22080;SDS011;11207;59.512;18.050;2023-05-07T01:34:52;5.70;;;5.10;;
22080;SDS011;11207;59.512;18.050;2023-05-07T01:37:19;9.03;;;4.93;;
22080;SDS011;11207;59.512;18.050;2023-05-07T01:39:45;6.10;;;5.50;;
22080;SDS011;11207;59.512;18.050;2023-05-07T01:42:12;9.30;;;5.17;;
22080;SDS011;11207;59.512;18.050;2023-05-07T01:44:38;5.70;;;5.20;;
22080;SDS011;11207;59.512;18.050;2023-05-07T01:47:03;6.33;;;5.73;;
22080;SDS011;11207;59.512;18.050;2023-05-07T01:49:29;6.10;;;5.50;;
22080;SDS011;11207;59.512;18.050;2023-05-07T01:51:55;7.37;;;6.67;;
22080;SDS011;11207;59.512;18.050;2023-05-07T01:54:25;5.73;;;5.23;;
22080;SDS011;11207;59.512;18.050;2023-05-07T01:56:52;6.03;;;5.40;;
22080;SDS011;11207;59.512;18.050;2023-05-07T01:59:20;6.10;;;5.43;;
22080;SDS011;11207;59.512;18.050;2023-05-07T02:01:45;6.53;;;5.97;;
22080;SDS011;11207;59.512;18.050;2023-05-07T02:04:11;6.63;;;5.20;;
22080;SDS011;11207;59.512;18.050;2023-05-07T02:06:37;5.80;;;5.30;;
22080;SDS011;11207;59.512;18.050;2023-05-07T02:09:02;6.23;;;5.70;;
22080;SDS011;11207;59.512;18.050;2023-05-07T02:11:28;9.73;;;6.00;;
22080;SDS011;11207;59.512;18.050;2023-05-07T02:13:53;7.50;;;6.03;;
22080;SDS011;11207;59.512;18.050;2023-05-07T02:16:19;10.53;;;6.07;;
22080;SDS011;11207;59.512;18.050;2023-05-07T02:18:46;6.13;;;5.13;;
22080;SDS011;11207;59.512;18.050;2023-05-07T02:21:11;5.93;;;5.43;;
22080;SDS011;11207;59.512;18.050;2023-05-07T02:23:37;6.87;;;5.27;;
22080;SDS011;11207;59.512;18.050;2023-05-07T02:26:03;6.60;;;5.40;;
22080;SDS011;11207;59.512;18.050;2023-05-07T02:28:29;7.03;;;5.00;;
22080;SDS011;11207;59.512;18.050;2023-05-07T02:30:55;5.77;;;5.10;;
22080;SDS011;11207;59.512;18.050;2023-05-07T02:33:23;5.57;;;5.10;;
22080;SDS011;11207;59.512;18.050;2023-05-07T02:35:49;6.13;;;5.63;;
22080;SDS011;11207;59.512;18.050;2023-05-07T02:38:16;5.53;;;5.03;;
22080;SDS011;11207;59.512;18.050;2023-05-07T02:40:42;6.47;;;5.83;;
22080;SDS011;11207;59.512;18.050;2023-05-07T02:43:08;7.20;;;5.97;;
22080;SDS011;11207;59.512;18.050;2023-05-07T02:45:33;7.63;;;5.53;;
22080;SDS011;11207;59.512;18.050;2023-05-07T02:48:00;6.77;;;5.53;;
22080;SDS011;11207;59.512;18.050;2023-05-07T02:50:25;6.80;;;5.30;;
22080;SDS011;11207;59.512;18.050;2023-05-07T02:52:52;6.00;;;5.47;;
22080;SDS011;11207;59.512;18.050;2023-05-07T02:55:17;6.83;;;5.43;;
22080;SDS011;11207;59.512;18.050;2023-05-07T02:57:43;6.17;;;5.63;;
22080;SDS011;11207;59.512;18.050;2023-05-07T03:02:42;7.00;;;5.37;;
22080;SDS011;11207;59.512;18.050;2023-05-07T03:05:08;6.27;;;5.67;;
22080;SDS011;11207;59.512;18.050;2023-05-07T03:07:35;6.50;;;5.80;;
22080;SDS011;11207;59.512;18.050;2023-05-07T03:10:01;6.00;;;5.43;;
22080;SDS011;11207;59.512;18.050;2023-05-07T03:12:27;9.30;;;5.87;;
22080;SDS011;11207;59.512;18.050;2023-05-07T03:14:53;8.30;;;5.80;;
22080;SDS011;11207;59.512;18.050;2023-05-07T03:17:18;7.07;;;5.90;;
22080;SDS011;11207;59.512;18.050;2023-05-07T03:19:45;6.17;;;5.40;;
22080;SDS011;11207;59.512;18.050;2023-05-07T03:22:10;6.93;;;5.60;;
22080;SDS011;11207;59.512;18.050;2023-05-07T03:24:36;6.17;;;5.60;;
22080;SDS011;11207;59.512;18.050;2023-05-07T03:27:01;7.43;;;5.87;;
22080;SDS011;11207;59.512;18.050;2023-05-07T03:29:27;7.73;;;6.23;;
22080;SDS011;11207;59.512;18.050;2023-05-07T03:31:53;7.57;;;6.10;;
22080;SDS011;11207;59.512;18.050;2023-05-07T03:34:18;8.37;;;6.27;;
22080;SDS011;11207;59.512;18.050;2023-05-07T03:36:47;7.10;;;6.40;;
22080;SDS011;11207;59.512;18.050;2023-05-07T03:39:13;7.13;;;6.30;;
22080;SDS011;11207;59.512;18.050;2023-05-07T03:41:39;8.97;;;6.33;;
22080;SDS011;11207;59.512;18.050;2023-05-07T03:44:05;7.10;;;6.47;;
22080;SDS011;11207;59.512;18.050;2023-05-07T03:46:31;7.13;;;5.70;;
22080;SDS011;11207;59.512;18.050;2023-05-07T03:48:57;7.53;;;6.70;;
22080;SDS011;11207;59.512;18.050;2023-05-07T03:51:23;6.57;;;5.90;;
22080;SDS011;11207;59.512;18.050;2023-05-07T03:53:49;6.87;;;6.07;;
22080;SDS011;11207;59.512;18.050;2023-05-07T03:56:17;6.83;;;6.23;;
22080;SDS011;11207;59.512;18.050;2023-05-07T03:58:44;6.60;;;5.80;;
22080;SDS011;11207;59.512;18.050;2023-05-07T04:01:09;5.93;;;5.33;;
22080;SDS011;11207;59.512;18.050;2023-05-07T04:03:35;7.33;;;5.60;;
22080;SDS011;11207;59.512;18.050;2023-05-07T04:06:01;8.90;;;6.20;;
22080;SDS011;11207;59.512;18.050;2023-05-07T04:08:26;6.70;;;6.00;;
22080;SDS011;11207;59.512;18.050;2023-05-07T04:10:55;6.93;;;6.30;;
22080;SDS011;11207;59.512;18.050;2023-05-07T04:13:21;6.50;;;5.90;;
22080;SDS011;11207;59.512;18.050;2023-05-07T04:15:47;8.93;;;6.03;;
22080;SDS011;11207;59.512;18.050;2023-05-07T04:18:14;6.07;;;5.50;;
22080;SDS011;11207;59.512;18.050;2023-05-07T04:20:40;6.13;;;5.63;;
22080;SDS011;11207;59.512;18.050;2023-05-07T04:23:05;6.50;;;5.90;;
22080;SDS011;11207;59.512;18.050;2023-05-07T04:25:32;12.67;;;6.53;;
22080;SDS011;11207;59.512;18.050;2023-05-07T04:27:58;6.47;;;5.83;;
22080;SDS011;11207;59.512;18.050;2023-05-07T04:30:24;7.17;;;5.83;;
22080;SDS011;11207;59.512;18.050;2023-05-07T04:32:50;8.00;;;6.53;;
22080;SDS011;11207;59.512;18.050;2023-05-07T04:35:15;7.00;;;6.30;;
22080;SDS011;11207;59.512;18.050;2023-05-07T04:37:41;6.37;;;5.77;;
22080;SDS011;11207;59.512;18.050;2023-05-07T04:40:07;7.33;;;6.53;;
22080;SDS011;11207;59.512;18.050;2023-05-07T04:42:33;9.13;;;6.30;;
22080;SDS011;11207;59.512;18.050;2023-05-07T04:44:58;6.60;;;5.80;;
22080;SDS011;11207;59.512;18.050;2023-05-07T04:47:24;6.87;;;6.17;;
22080;SDS011;11207;59.512;18.050;2023-05-07T04:49:50;6.37;;;5.77;;
22080;SDS011;11207;59.512;18.050;2023-05-07T04:52:16;7.37;;;5.97;;
22080;SDS011;11207;59.512;18.050;2023-05-07T04:54:43;6.63;;;5.87;;
22080;SDS011;11207;59.512;18.050;2023-05-07T04:57:08;7.10;;;5.90;;
22080;SDS011;11207;59.512;18.050;2023-05-07T04:59:34;8.83;;;6.33;;
22080;SDS011;11207;59.512;18.050;2023-05-07T05:02:00;6.63;;;6.00;;
22080;SDS011;11207;59.512;18.050;2023-05-07T05:04:26;7.07;;;5.50;;
22080;SDS011;11207;59.512;18.050;2023-05-07T05:06:52;6.80;;;6.10;;
22080;SDS011;11207;59.512;18.050;2023-05-07T05:09:17;8.00;;;6.27;;
22080;SDS011;11207;59.512;18.050;2023-05-07T05:11:43;7.47;;;6.23;;
22080;SDS011;11207;59.512;18.050;2023-05-07T05:14:09;6.53;;;5.80;;
22080;SDS011;11207;59.512;18.050;2023-05-07T05:16:34;5.93;;;5.33;;
22080;SDS011;11207;59.512;18.050;2023-05-07T05:19:01;8.13;;;5.90;;
22080;SDS011;11207;59.512;18.050;2023-05-07T05:21:26;7.07;;;6.10;;
22080;SDS011;11207;59.512;18.050;2023-05-07T05:23:52;8.80;;;5.60;;
22080;SDS011;11207;59.512;18.050;2023-05-07T05:26:18;8.20;;;5.23;;
22080;SDS011;11207;59.512;18.050;2023-05-07T05:28:43;6.03;;;5.17;;
22080;SDS011;11207;59.512;18.050;2023-05-07T05:31:09;5.20;;;4.67;;
22080;SDS011;11207;59.512;18.050;2023-05-07T05:33:35;7.13;;;5.23;;
22080;SDS011;11207;59.512;18.050;2023-05-07T05:36:01;5.70;;;5.10;;
22080;SDS011;11207;59.512;18.050;2023-05-07T05:38:26;5.10;;;4.60;;
22080;SDS011;11207;59.512;18.050;2023-05-07T05:40:52;4.80;;;4.40;;
22080;SDS011;11207;59.512;18.050;2023-05-07T05:43:17;6.30;;;4.40;;
22080;SDS011;11207;59.512;18.050;2023-05-07T05:45:43;5.70;;;4.47;;
22080;SDS011;11207;59.512;18.050;2023-05-07T05:48:09;4.90;;;4.40;;
22080;SDS011;11207;59.512;18.050;2023-05-07T05:50:34;5.53;;;4.60;;
22080;SDS011;11207;59.512;18.050;2023-05-07T05:53:03;5.47;;;4.80;;
22080;SDS011;11207;59.512;18.050;2023-05-07T05:55:29;5.57;;;5.00;;
22080;SDS011;11207;59.512;18.050;2023-05-07T05:57:55;4.40;;;4.10;;
22080;SDS011;11207;59.512;18.050;2023-05-07T06:00:21;5.37;;;4.67;;
22080;SDS011;11207;59.512;18.050;2023-05-07T06:02:47;5.93;;;4.60;;
22080;SDS011;11207;59.512;18.050;2023-05-07T06:05:13;5.60;;;5.10;;
22080;SDS011;11207;59.512;18.050;2023-05-07T06:07:39;4.83;;;4.43;;
22080;SDS011;11207;59.512;18.050;2023-05-07T06:10:05;4.97;;;4.53;;
22080;SDS011;11207;59.512;18.050;2023-05-07T06:12:31;4.80;;;4.30;;
22080;SDS011;11207;59.512;18.050;2023-05-07T06:14:57;4.57;;;4.17;;
22080;SDS011;11207;59.512;18.050;2023-05-07T06:17:23;9.37;;;4.93;;
22080;SDS011;11207;59.512;18.050;2023-05-07T06:19:48;4.73;;;4.33;;
22080;SDS011;11207;59.512;18.050;2023-05-07T06:22:14;7.13;;;4.17;;
22080;SDS011;11207;59.512;18.050;2023-05-07T06:24:40;4.67;;;4.20;;
22080;SDS011;11207;59.512;18.050;2023-05-07T06:27:06;4.50;;;4.10;;
22080;SDS011;11207;59.512;18.050;2023-05-07T06:29:32;6.00;;;4.03;;
22080;SDS011;11207;59.512;18.050;2023-05-07T06:32:11;4.33;;;3.93;;
22080;SDS011;11207;59.512;18.050;2023-05-07T06:34:38;4.17;;;3.47;;
22080;SDS011;11207;59.512;18.050;2023-05-07T06:37:04;4.60;;;4.20;;
22080;SDS011;11207;59.512;18.050;2023-05-07T06:39:30;4.00;;;3.70;;
22080;SDS011;11207;59.512;18.050;2023-05-07T06:41:56;3.73;;;3.43;;
22080;SDS011;11207;59.512;18.050;2023-05-07T06:44:22;4.20;;;3.67;;
22080;SDS011;11207;59.512;18.050;2023-05-07T06:46:47;4.57;;;3.60;;
22080;SDS011;11207;59.512;18.050;2023-05-07T06:49:13;3.87;;;3.50;;
22080;SDS011;11207;59.512;18.050;2023-05-07T06:51:39;3.80;;;3.50;;
22080;SDS011;11207;59.512;18.050;2023-05-07T06:54:04;3.90;;;3.60;;
22080;SDS011;11207;59.512;18.050;2023-05-07T06:56:30;3.90;;;3.53;;
22080;SDS011;11207;59.512;18.050;2023-05-07T06:58:56;3.97;;;3.67;;
22080;SDS011;11207;59.512;18.050;2023-05-07T07:01:22;4.43;;;3.80;;
22080;SDS011;11207;59.512;18.050;2023-05-07T07:03:48;9.17;;;3.60;;
22080;SDS011;11207;59.512;18.050;2023-05-07T07:06:14;5.00;;;3.47;;
22080;SDS011;11207;59.512;18.050;2023-05-07T07:08:39;3.60;;;3.30;;
22080;SDS011;11207;59.512;18.050;2023-05-07T07:11:05;4.60;;;3.40;;
22080;SDS011;11207;59.512;18.050;2023-05-07T07:13:31;3.80;;;3.50;;
22080;SDS011;11207;59.512;18.050;2023-05-07T07:15:57;3.43;;;3.17;;
22080;SDS011;11207;59.512;18.050;2023-05-07T07:18:23;3.43;;;3.23;;
22080;SDS011;11207;59.512;18.050;2023-05-07T07:20:48;3.90;;;3.47;;
22080;SDS011;11207;59.512;18.050;2023-05-07T07:23:14;3.60;;;3.30;;
22080;SDS011;11207;59.512;18.050;2023-05-07T07:25:40;3.50;;;3.20;;
22080;SDS011;11207;59.512;18.050;2023-05-07T07:28:06;3.10;;;2.87;;
22080;SDS011;11207;59.512;18.050;2023-05-07T07:30:32;5.33;;;3.10;;
22080;SDS011;11207;59.512;18.050;2023-05-07T07:32:58;3.47;;;3.17;;
22080;SDS011;11207;59.512;18.050;2023-05-07T07:35:28;6.03;;;3.00;;
22080;SDS011;11207;59.512;18.050;2023-05-07T07:37:54;4.57;;;3.10;;
22080;SDS011;11207;59.512;18.050;2023-05-07T07:40:20;3.00;;;2.80;;
22080;SDS011;11207;59.512;18.050;2023-05-07T07:42:45;3.30;;;3.00;;
22080;SDS011;11207;59.512;18.050;2023-05-07T07:45:11;3.50;;;3.20;;
22080;SDS011;11207;59.512;18.050;2023-05-07T07:47:37;3.40;;;3.10;;
22080;SDS011;11207;59.512;18.050;2023-05-07T07:50:04;4.17;;;2.80;;
22080;SDS011;11207;59.512;18.050;2023-05-07T07:52:30;2.87;;;2.67;;
22080;SDS011;11207;59.512;18.050;2023-05-07T07:54:56;3.13;;;2.90;;
22080;SDS011;11207;59.512;18.050;2023-05-07T07:57:21;3.80;;;2.80;;
22080;SDS011;11207;59.512;18.050;2023-05-07T07:59:47;2.67;;;2.50;;
22080;SDS011;11207;59.512;18.050;2023-05-07T08:02:13;3.03;;;2.83;;
22080;SDS011;11207;59.512;18.050;2023-05-07T08:04:38;3.80;;;2.80;;
22080;SDS011;11207;59.512;18.050;2023-05-07T08:07:04;3.20;;;2.50;;
22080;SDS011;11207;59.512;18.050;2023-05-07T08:09:30;3.00;;;2.80;;
22080;SDS011;11207;59.512;18.050;2023-05-07T08:11:56;2.93;;;2.70;;
22080;SDS011;11207;59.512;18.050;2023-05-07T08:14:22;3.77;;;3.23;;
22080;SDS011;11207;59.512;18.050;2023-05-07T08:16:48;2.80;;;2.60;;
22080;SDS011;11207;59.512;18.050;2023-05-07T08:19:13;3.97;;;2.93;;
22080;SDS011;11207;59.512;18.050;2023-05-07T08:21:39;3.67;;;2.70;;
22080;SDS011;11207;59.512;18.050;2023-05-07T08:24:05;2.70;;;2.17;;
22080;SDS011;11207;59.512;18.050;2023-05-07T08:26:31;2.50;;;2.30;;
22080;SDS011;11207;59.512;18.050;2023-05-07T08:28:57;3.13;;;2.63;;
22080;SDS011;11207;59.512;18.050;2023-05-07T08:31:22;3.33;;;2.30;;
22080;SDS011;11207;59.512;18.050;2023-05-07T08:33:48;4.17;;;2.50;;
22080;SDS011;11207;59.512;18.050;2023-05-07T08:36:15;3.63;;;2.37;;
22080;SDS011;11207;59.512;18.050;2023-05-07T08:38:40;2.60;;;2.40;;
22080;SDS011;11207;59.512;18.050;2023-05-07T08:41:09;4.30;;;2.67;;
22080;SDS011;11207;59.512;18.050;2023-05-07T08:43:37;4.13;;;2.73;;
22080;SDS011;11207;59.512;18.050;2023-05-07T08:46:05;2.83;;;2.53;;
22080;SDS011;11207;59.512;18.050;2023-05-07T08:48:33;3.20;;;2.30;;
22080;SDS011;11207;59.512;18.050;2023-05-07T08:51:00;2.40;;;2.20;;
22080;SDS011;11207;59.512;18.050;2023-05-07T08:53:26;2.60;;;2.30;;
22080;SDS011;11207;59.512;18.050;2023-05-07T08:55:51;7.90;;;2.57;;
22080;SDS011;11207;59.512;18.050;2023-05-07T08:58:18;6.17;;;2.27;;
22080;SDS011;11207;59.512;18.050;2023-05-07T09:00:44;2.47;;;2.10;;
22080;SDS011;11207;59.512;18.050;2023-05-07T09:03:09;2.37;;;2.10;;
22080;SDS011;11207;59.512;18.050;2023-05-07T09:05:39;2.00;;;1.90;;
22080;SDS011;11207;59.512;18.050;2023-05-07T09:08:06;2.30;;;2.10;;
22080;SDS011;11207;59.512;18.050;2023-05-07T09:10:33;2.03;;;1.90;;
22080;SDS011;11207;59.512;18.050;2023-05-07T09:12:59;3.13;;;2.30;;
22080;SDS011;11207;59.512;18.050;2023-05-07T09:15:25;2.47;;;1.70;;
22080;SDS011;11207;59.512;18.050;2023-05-07T09:17:52;3.30;;;2.03;;
22080;SDS011;11207;59.512;18.050;2023-05-07T09:20:18;2.90;;;1.90;;
22080;SDS011;11207;59.512;18.050;2023-05-07T09:22:44;2.13;;;1.53;;
22080;SDS011;11207;59.512;18.050;2023-05-07T09:25:10;2.93;;;1.73;;
22080;SDS011;11207;59.512;18.050;2023-05-07T09:27:36;2.13;;;1.80;;
22080;SDS011;11207;59.512;18.050;2023-05-07T09:30:05;1.80;;;1.70;;
22080;SDS011;11207;59.512;18.050;2023-05-07T09:32:35;3.30;;;1.93;;
22080;SDS011;11207;59.512;18.050;2023-05-07T09:35:03;2.87;;;1.60;;
22080;SDS011;11207;59.512;18.050;2023-05-07T09:37:30;1.87;;;1.70;;
22080;SDS011;11207;59.512;18.050;2023-05-07T09:39:56;2.17;;;1.80;;
22080;SDS011;11207;59.512;18.050;2023-05-07T09:42:23;2.27;;;1.80;;
22080;SDS011;11207;59.512;18.050;2023-05-07T09:44:51;2.30;;;1.70;;
22080;SDS011;11207;59.512;18.050;2023-05-07T09:47:20;1.80;;;1.70;;
22080;SDS011;11207;59.512;18.050;2023-05-07T09:49:49;2.87;;;1.70;;
22080;SDS011;11207;59.512;18.050;2023-05-07T09:52:17;1.70;;;1.60;;
22080;SDS011;11207;59.512;18.050;2023-05-07T09:54:43;2.07;;;1.80;;
22080;SDS011;11207;59.512;18.050;2023-05-07T09:57:12;2.80;;;1.67;;
22080;SDS011;11207;59.512;18.050;2023-05-07T09:59:41;3.13;;;1.70;;
22080;SDS011;11207;59.512;18.050;2023-05-07T10:02:09;1.60;;;1.50;;
22080;SDS011;11207;59.512;18.050;2023-05-07T10:04:35;1.60;;;1.50;;
22080;SDS011;11207;59.512;18.050;2023-05-07T10:07:01;3.03;;;1.80;;
22080;SDS011;11207;59.512;18.050;2023-05-07T10:09:29;3.08;;;1.77;;
22080;SDS011;11207;59.512;18.050;2023-05-07T10:11:56;3.75;;;1.65;;
22080;SDS011;11207;59.512;18.050;2023-05-07T10:14:23;1.62;;;1.50;;
22080;SDS011;11207;59.512;18.050;2023-05-07T10:16:50;1.87;;;1.35;;
22080;SDS011;11207;59.512;18.050;2023-05-07T10:19:17;3.60;;;1.80;;
22080;SDS011;11207;59.512;18.050;2023-05-07T10:21:57;1.85;;;1.50;;
22080;SDS011;11207;59.512;18.050;2023-05-07T10:24:34;1.25;;;1.15;;
22080;SDS011;11207;59.512;18.050;2023-05-07T10:27:04;2.35;;;1.30;;
22080;SDS011;11207;59.512;18.050;2023-05-07T10:32:42;3.12;;;1.73;;
22080;SDS011;11207;59.512;18.050;2023-05-07T10:35:16;2.35;;;1.37;;
22080;SDS011;11207;59.512;18.050;2023-05-07T10:37:46;2.78;;;1.62;;
22080;SDS011;11207;59.512;18.050;2023-05-07T10:40:22;3.22;;;1.30;;
22080;SDS011;11207;59.512;18.050;2023-05-07T10:45:21;2.47;;;1.33;;
22080;SDS011;11207;59.512;18.050;2023-05-07T10:48:07;1.67;;;1.40;;
22080;SDS011;11207;59.512;18.050;2023-05-07T10:50:33;3.62;;;1.60;;
22080;SDS011;11207;59.512;18.050;2023-05-07T10:55:43;2.50;;;1.48;;
22080;SDS011;11207;59.512;18.050;2023-05-07T10:58:24;2.67;;;1.27;;
22080;SDS011;11207;59.512;18.050;2023-05-07T11:00:55;1.50;;;1.40;;
22080;SDS011;11207;59.512;18.050;2023-05-07T11:03:24;2.30;;;1.60;;
22080;SDS011;11207;59.512;18.050;2023-05-07T11:11:43;3.08;;;1.30;;
22080;SDS011;11207;59.512;18.050;2023-05-07T11:14:09;2.05;;;1.40;;
22080;SDS011;11207;59.512;18.050;2023-05-07T11:16:35;3.17;;;1.57;;
22080;SDS011;11207;59.512;18.050;2023-05-07T11:19:03;1.58;;;1.45;;
22080;SDS011;11207;59.512;18.050;2023-05-07T11:21:38;1.75;;;1.50;;
22080;SDS011;11207;59.512;18.050;2023-05-07T11:24:06;2.42;;;1.60;;
22080;SDS011;11207;59.512;18.050;2023-05-07T11:26:43;2.08;;;1.20;;
22080;SDS011;11207;59.512;18.050;2023-05-07T11:29:17;2.57;;;1.50;;
22080;SDS011;11207;59.512;18.050;2023-05-07T11:31:49;3.00;;;1.63;;
22080;SDS011;11207;59.512;18.050;2023-05-07T11:34:25;5.00;;;1.80;;
22080;SDS011;11207;59.512;18.050;2023-05-07T11:36:51;2.60;;;1.50;;
22080;SDS011;11207;59.512;18.050;2023-05-07T11:39:27;6.10;;;1.45;;
22080;SDS011;11207;59.512;18.050;2023-05-07T11:41:58;3.92;;;1.62;;
22080;SDS011;11207;59.512;18.050;2023-05-07T11:44:25;1.65;;;1.50;;
22080;SDS011;11207;59.512;18.050;2023-05-07T11:47:03;2.35;;;1.42;;
22080;SDS011;11207;59.512;18.050;2023-05-07T11:49:29;2.37;;;1.42;;
22080;SDS011;11207;59.512;18.050;2023-05-07T11:51:55;2.05;;;1.70;;
22080;SDS011;11207;59.512;18.050;2023-05-07T11:54:21;1.40;;;1.30;;
22080;SDS011;11207;59.512;18.050;2023-05-07T11:56:47;3.22;;;1.65;;
22080;SDS011;11207;59.512;18.050;2023-05-07T11:59:16;4.30;;;1.70;;
22080;SDS011;11207;59.512;18.050;2023-05-07T12:01:44;4.00;;;2.25;;
22080;SDS011;11207;59.512;18.050;2023-05-07T12:04:11;2.60;;;1.67;;
22080;SDS011;11207;59.512;18.050;2023-05-07T12:06:36;2.03;;;1.40;;
22080;SDS011;11207;59.512;18.050;2023-05-07T12:09:04;1.92;;;1.52;;
22080;SDS011;11207;59.512;18.050;2023-05-07T12:11:32;3.17;;;1.50;;
22080;SDS011;11207;59.512;18.050;2023-05-07T12:13:59;2.17;;;1.42;;
22080;SDS011;11207;59.512;18.050;2023-05-07T12:16:25;2.42;;;1.45;;
22080;SDS011;11207;59.512;18.050;2023-05-07T12:18:53;4.07;;;1.70;;
22080;SDS011;11207;59.512;18.050;2023-05-07T12:21:22;1.73;;;1.50;;
22080;SDS011;11207;59.512;18.050;2023-05-07T12:23:51;1.65;;;1.30;;
22080;SDS011;11207;59.512;18.050;2023-05-07T12:26:23;7.20;;;2.00;;
22080;SDS011;11207;59.512;18.050;2023-05-07T12:28:52;1.58;;;1.48;;
22080;SDS011;11207;59.512;18.050;2023-05-07T12:31:18;3.95;;;1.52;;
22080;SDS011;11207;59.512;18.050;2023-05-07T12:33:46;2.62;;;1.60;;
22080;SDS011;11207;59.512;18.050;2023-05-07T12:36:13;1.40;;;1.30;;
22080;SDS011;11207;59.512;18.050;2023-05-07T12:38:40;2.42;;;1.62;;
22080;SDS011;11207;59.512;18.050;2023-05-07T12:41:06;2.20;;;1.60;;
22080;SDS011;11207;59.512;18.050;2023-05-07T12:43:33;2.30;;;1.62;;
22080;SDS011;11207;59.512;18.050;2023-05-07T12:46:01;3.05;;;1.40;;
22080;SDS011;11207;59.512;18.050;2023-05-07T12:48:33;4.15;;;1.80;;
22080;SDS011;11207;59.512;18.050;2023-05-07T12:51:05;2.17;;;1.70;;
22080;SDS011;11207;59.512;18.050;2023-05-07T12:53:39;2.62;;;1.73;;
22080;SDS011;11207;59.512;18.050;2023-05-07T12:56:08;3.42;;;1.65;;
22080;SDS011;11207;59.512;18.050;2023-05-07T12:58:35;2.97;;;1.83;;
22080;SDS011;11207;59.512;18.050;2023-05-07T13:01:05;3.03;;;1.73;;
22080;SDS011;11207;59.512;18.050;2023-05-07T13:03:34;2.30;;;1.50;;
22080;SDS011;11207;59.512;18.050;2023-05-07T13:06:02;1.62;;;1.37;;
22080;SDS011;11207;59.512;18.050;2023-05-07T13:08:33;3.42;;;1.65;;
22080;SDS011;11207;59.512;18.050;2023-05-07T13:11:02;3.47;;;1.95;;
22080;SDS011;11207;59.512;18.050;2023-05-07T13:13:31;4.07;;;1.90;;
22080;SDS011;11207;59.512;18.050;2023-05-07T13:15:59;5.53;;;1.90;;
22080;SDS011;11207;59.512;18.050;2023-05-07T13:18:26;7.20;;;1.80;;
22080;SDS011;11207;59.512;18.050;2023-05-07T13:20:56;2.03;;;1.83;;
22080;SDS011;11207;59.512;18.050;2023-05-07T13:23:22;2.97;;;1.80;;
22080;SDS011;11207;59.512;18.050;2023-05-07T13:25:48;2.70;;;1.70;;
22080;SDS011;11207;59.512;18.050;2023-05-07T13:28:15;2.00;;;1.70;;
22080;SDS011;11207;59.512;18.050;2023-05-07T13:30:41;3.97;;;1.57;;
22080;SDS011;11207;59.512;18.050;2023-05-07T13:33:07;2.33;;;1.60;;
22080;SDS011;11207;59.512;18.050;2023-05-07T13:35:33;3.33;;;1.70;;
22080;SDS011;11207;59.512;18.050;2023-05-07T13:38:02;2.10;;;1.50;;
22080;SDS011;11207;59.512;18.050;2023-05-07T13:40:28;1.80;;;1.70;;
22080;SDS011;11207;59.512;18.050;2023-05-07T13:42:56;1.87;;;1.77;;
22080;SDS011;11207;59.512;18.050;2023-05-07T13:45:23;1.63;;;1.50;;
22080;SDS011;11207;59.512;18.050;2023-05-07T13:47:50;3.20;;;1.67;;
22080;SDS011;11207;59.512;18.050;2023-05-07T13:50:16;1.77;;;1.60;;
22080;SDS011;11207;59.512;18.050;2023-05-07T13:52:43;2.23;;;1.60;;
22080;SDS011;11207;59.512;18.050;2023-05-07T13:55:19;2.13;;;1.87;;
22080;SDS011;11207;59.512;18.050;2023-05-07T13:57:45;1.80;;;1.50;;
22080;SDS011;11207;59.512;18.050;2023-05-07T14:00:12;1.60;;;1.50;;
22080;SDS011;11207;59.512;18.050;2023-05-07T14:02:38;1.80;;;1.60;;
22080;SDS011;11207;59.512;18.050;2023-05-07T14:05:05;1.60;;;1.50;;
22080;SDS011;11207;59.512;18.050;2023-05-07T14:07:31;1.70;;;1.60;;
22080;SDS011;11207;59.512;18.050;2023-05-07T14:09:57;2.73;;;1.60;;
22080;SDS011;11207;59.512;18.050;2023-05-07T14:12:22;1.80;;;1.63;;
22080;SDS011;11207;59.512;18.050;2023-05-07T14:14:48;4.40;;;1.60;;
22080;SDS011;11207;59.512;18.050;2023-05-07T14:17:15;2.03;;;1.60;;
22080;SDS011;11207;59.512;18.050;2023-05-07T14:19:44;1.70;;;1.60;;
22080;SDS011;11207;59.512;18.050;2023-05-07T14:22:12;4.60;;;1.73;;
22080;SDS011;11207;59.512;18.050;2023-05-07T14:24:40;2.23;;;1.87;;
22080;SDS011;11207;59.512;18.050;2023-05-07T14:27:06;1.70;;;1.60;;
22080;SDS011;11207;59.512;18.050;2023-05-07T14:29:31;4.70;;;1.50;;
22080;SDS011;11207;59.512;18.050;2023-05-07T14:31:57;1.70;;;1.60;;
22080;SDS011;11207;59.512;18.050;2023-05-07T14:34:23;2.93;;;1.90;;
22080;SDS011;11207;59.512;18.050;2023-05-07T14:36:48;2.47;;;2.20;;
22080;SDS011;11207;59.512;18.050;2023-05-07T14:39:14;2.10;;;1.87;;
22080;SDS011;11207;59.512;18.050;2023-05-07T14:41:40;2.50;;;1.87;;
22080;SDS011;11207;59.512;18.050;2023-05-07T14:44:05;2.00;;;1.80;;
22080;SDS011;11207;59.512;18.050;2023-05-07T14:46:31;1.77;;;1.67;;
22080;SDS011;11207;59.512;18.050;2023-05-07T14:48:57;2.00;;;1.80;;